Time;durP1;ratioP1;P1;durP2;ratioP2;P2;SDS_P1;SDS_P2;PMS_P1;PMS_P2;Temp;Humidity;BMP_temperature;BMP_pressure;BME280_temperature;BME280_humidity;BME280_pressure;Samples;Min_cycle;Max_cycle;Signal;HPM_P1;HPM_P2
2021/07/13 04:45:51;;;;;;;22.85;13.68;;;;;;;31.57;44.69;98580.08;1610031;87;21112;-43
2021/07/13 04:48:18;;;;;;;19.92;11.30;;;;;;;31.88;44.10;98577.31;1612142;88;21131;-44
2021/07/13 04:50:47;;;;;;;17.02;10.15;;;;;;;32.32;42.64;98573.57;1609386;88;21071;-43
2021/07/13 04:53:15;;;;;;;17.82;10.00;;;;;;;32.48;42.12;98574.32;1609392;87;21606;-44
2021/07/13 04:55:43;;;;;;;16.50;9.45;;;;;;;32.68;41.99;98579.96;1611518;87;21586;-44
2021/07/13 04:58:11;;;;;;;16.23;9.80;;;;;;;33.02;41.30;98581.00;1636299;86;21043;-47
2021/07/13 05:00:39;;;;;;;19.23;10.45;;;;;;;33.25;40.49;98586.47;1636371;86;21602;-48
2021/07/13 05:03:07;;;;;;;19.15;9.50;;;;;;;33.12;39.96;98588.39;1626634;86;21122;-52
2021/07/13 05:05:35;;;;;;;14.75;9.00;;;;;;;32.56;40.70;98589.67;1624562;87;21083;-43
2021/07/13 05:08:03;;;;;;;14.50;9.05;;;;;;;31.85;41.83;98588.16;1623430;86;21047;-42
2021/07/13 05:10:31;;;;;;;15.10;8.95;;;;;;;31.49;42.62;98591.97;1627143;86;21040;-41
2021/07/13 05:13:03;;;;;;;18.92;9.28;;;;;;;31.41;42.72;98580.88;1615564;86;21522;-41
2021/07/13 05:15:33;;;;;;;32.13;10.55;;;;;;;31.35;43.13;98578.78;1612595;86;22294;-45
2021/07/13 05:18:02;;;;;;;24.25;9.23;;;;;;;31.30;43.34;98588.56;1600279;88;21135;-43
2021/07/13 05:20:32;;;;;;;16.20;9.40;;;;;;;31.41;43.01;98586.33;1615475;86;21551;-40
2021/07/13 05:23:06;;;;;;;17.55;9.08;;;;;;;31.45;42.88;98592.66;1609644;87;21586;-40
2021/07/13 05:25:29;;;;;;;18.67;8.88;;;;;;;31.50;42.98;98596.27;1601283;87;21095;-40
2021/07/13 05:27:57;;;;;;;16.95;8.95;;;;;;;31.77;42.74;98595.91;1615814;87;21115;-55
2021/07/13 05:30:25;;;;;;;15.85;9.03;;;;;;;31.97;42.11;98591.55;1609408;87;21095;-39
2021/07/13 05:32:52;;;;;;;19.02;8.88;;;;;;;31.93;42.26;98591.24;1609720;88;21044;-43
2021/07/13 05:35:20;;;;;;;13.55;8.85;;;;;;;31.92;42.34;98593.18;1623399;87;21083;-44
2021/07/13 05:37:52;;;;;;;14.70;9.00;;;;;;;32.15;41.64;98599.32;1618931;87;21557;-43
2021/07/13 05:40:21;;;;;;;13.25;8.15;;;;;;;32.14;41.44;98601.84;1574314;89;21804;-46
2021/07/13 05:42:52;;;;;;;15.93;8.85;;;;;;;32.18;41.42;98602.13;1571608;88;21083;-50
2021/07/13 05:45:22;;;;;;;15.23;8.60;;;;;;;32.17;41.37;98599.74;1615199;86;21138;-52
2021/07/13 05:47:51;;;;;;;17.80;8.10;;;;;;;32.20;41.38;98608.59;1583903;89;21080;-46
2021/07/13 05:50:21;;;;;;;16.35;8.73;;;;;;;32.22;41.52;98607.06;1574220;89;21059;-42
2021/07/13 05:52:52;;;;;;;17.90;8.13;;;;;;;32.38;41.09;98606.26;1613951;88;21011;-43
2021/07/13 05:55:23;;;;;;;14.75;8.48;;;;;;;32.78;40.42;98596.33;1609627;87;21080;-46
2021/07/13 05:57:53;;;;;;;17.75;8.70;;;;;;;33.11;39.87;98594.43;1612768;87;20996;-42
2021/07/13 06:00:22;;;;;;;16.77;8.33;;;;;;;33.01;39.38;98596.39;1597721;87;21083;-49
2021/07/13 06:02:50;;;;;;;18.65;8.55;;;;;;;32.87;39.81;98605.67;1593046;87;21063;-47
2021/07/13 06:05:18;;;;;;;15.38;7.92;;;;;;;32.88;39.88;98605.91;1609256;88;21566;-48
2021/07/13 06:07:48;;;;;;;21.50;8.55;;;;;;;32.76;40.15;98604.89;1608947;89;21158;-48
2021/07/13 06:10:18;;;;;;;12.95;7.72;;;;;;;32.72;40.27;98608.11;1587112;90;21565;-46
2021/07/13 06:12:47;;;;;;;12.40;8.20;;;;;;;32.79;39.97;98602.00;1612299;87;21225;-53
2021/07/13 06:15:16;;;;;;;14.38;7.50;;;;;;;32.82;39.77;98605.96;1612183;88;22170;-47
2021/07/13 06:17:43;;;;;;;13.70;7.62;;;;;;;32.95;39.52;98601.36;1614519;87;21059;-46
2021/07/13 06:20:13;;;;;;;12.05;7.95;;;;;;;33.04;39.57;98612.06;1611017;87;21602;-44
2021/07/13 06:22:41;;;;;;;14.13;8.88;;;;;;;33.07;39.45;98611.89;1609475;88;21091;-46
2021/07/13 06:25:10;;;;;;;14.93;7.97;;;;;;;33.10;39.19;98609.82;1608758;88;21621;-44
2021/07/13 06:27:37;;;;;;;14.20;7.93;;;;;;;33.10;39.39;98609.23;1559630;91;21523;-43
2021/07/13 06:30:07;;;;;;;13.60;8.20;;;;;;;33.19;39.41;98609.77;1573886;88;21629;-51
2021/07/13 06:32:35;;;;;;;15.30;8.15;;;;;;;33.21;39.30;98603.39;1573448;89;22193;-46
2021/07/13 06:35:03;;;;;;;18.27;7.62;;;;;;;33.30;39.32;98608.59;1609535;88;21099;-45
2021/07/13 06:37:31;;;;;;;15.38;8.35;;;;;;;33.48;38.71;98604.23;1609271;88;21015;-51
2021/07/13 06:39:58;;;;;;;13.95;8.38;;;;;;;33.45;38.85;98604.98;1609361;87;21531;-46
2021/07/13 06:42:26;;;;;;;19.45;8.05;;;;;;;33.46;38.65;98603.03;1626472;86;21052;-46
2021/07/13 06:44:54;;;;;;;15.88;8.13;;;;;;;33.50;38.63;98598.42;1612818;88;21116;-46
2021/07/13 06:47:23;;;;;;;15.53;8.88;;;;;;;33.53;38.22;98603.14;1610360;88;21060;-51
2021/07/13 06:49:51;;;;;;;14.83;8.75;;;;;;;33.61;38.14;98603.48;1612947;88;21076;-49
2021/07/13 06:52:18;;;;;;;13.68;7.53;;;;;;;33.66;37.79;98604.51;1612186;87;21048;-50
2021/07/13 06:54:46;;;;;;;13.15;8.20;;;;;;;33.65;37.94;98601.57;1621536;87;21099;-45
2021/07/13 06:57:14;;;;;;;20.65;9.18;;;;;;;33.66;37.95;98597.67;1613588;87;21136;-46
2021/07/13 06:59:41;;;;;;;21.82;11.70;;;;;;;33.55;38.05;98601.64;1587174;88;21034;-47
2021/07/13 07:02:09;;;;;;;18.30;10.23;;;;;;;33.54;38.03;98596.52;1608182;88;21095;-50
2021/07/13 07:04:37;;;;;;;21.27;11.60;;;;;;;33.53;38.35;98603.93;1611847;87;21539;-47
2021/07/13 07:07:07;;;;;;;21.05;10.88;;;;;;;33.70;37.91;98598.53;1615341;88;21108;-52
2021/07/13 07:09:34;;;;;;;12.50;8.65;;;;;;;33.80;37.55;98602.01;1614877;88;21044;-50
2021/07/13 07:12:02;;;;;;;16.57;9.25;;;;;;;33.87;37.16;98595.84;1615796;88;21011;-46
2021/07/13 07:14:29;;;;;;;15.25;8.25;;;;;;;33.71;37.57;98597.37;1618807;88;21165;-44
2021/07/13 07:16:57;;;;;;;12.40;7.72;;;;;;;33.66;37.19;98595.53;1581820;88;21103;-46
2021/07/13 07:19:24;;;;;;;19.12;8.58;;;;;;;33.55;37.40;98600.85;1619135;87;21108;-51
2021/07/13 07:21:52;;;;;;;14.58;8.10;;;;;;;33.57;37.48;98599.90;1613887;87;21518;-42
2021/07/13 07:24:22;;;;;;;20.15;8.38;;;;;;;33.53;37.22;98597.09;1611807;87;21016;-47
2021/07/13 07:26:50;;;;;;;13.53;8.43;;;;;;;33.58;37.09;98598.73;1611542;87;21157;-42
2021/07/13 07:29:18;;;;;;;11.63;8.00;;;;;;;33.54;36.66;98596.52;1617853;86;21070;-50
2021/07/13 07:31:46;;;;;;;12.65;8.55;;;;;;;33.54;36.86;98601.98;1615413;87;21072;-49
2021/07/13 07:34:13;;;;;;;12.10;7.62;;;;;;;33.30;37.37;98601.77;1610335;88;21040;-56
2021/07/13 07:36:41;;;;;;;13.32;8.05;;;;;;;33.16;37.39;98605.05;1615153;88;21175;-50
2021/07/13 07:39:09;;;;;;;14.07;7.92;;;;;;;33.06;36.50;98610.33;1581220;89;21095;-48
2021/07/13 07:41:36;;;;;;;13.45;7.67;;;;;;;32.89;37.76;98611.58;1613018;87;21106;-50
2021/07/13 07:44:05;;;;;;;14.20;8.13;;;;;;;32.65;38.08;98614.02;1634615;86;21625;-45
2021/07/13 07:46:33;;;;;;;12.93;8.00;;;;;;;32.41;39.08;98619.19;1624722;87;21542;-45
2021/07/13 07:49:02;;;;;;;11.90;7.62;;;;;;;32.30;39.38;98620.87;1608678;88;21609;-45
2021/07/13 07:51:30;;;;;;;13.43;7.65;;;;;;;32.08;38.89;98619.63;1612765;87;21075;-47
2021/07/13 07:53:57;;;;;;;12.10;6.83;;;;;;;31.83;40.06;98620.41;1617543;86;21003;-49
2021/07/13 07:56:25;;;;;;;8.10;6.72;;;;;;;31.69;39.08;98622.20;1634648;87;21049;-50
2021/07/13 07:58:52;;;;;;;13.70;7.35;;;;;;;31.41;39.48;98620.37;1641156;86;21131;-47
2021/07/13 08:01:20;;;;;;;9.40;6.90;;;;;;;31.19;40.78;98623.66;1645691;85;21554;-43
2021/07/13 08:03:49;;;;;;;9.68;7.40;;;;;;;31.05;40.52;98614.56;1618687;86;21099;-51
2021/07/13 08:06:20;;;;;;;12.60;7.50;;;;;;;30.87;41.62;98624.19;1615415;88;21119;-44
2021/07/13 08:08:49;;;;;;;11.47;7.97;;;;;;;30.35;43.26;98618.24;1608165;88;21103;-46
2021/07/13 08:11:17;;;;;;;11.95;7.45;;;;;;;30.35;43.26;98618.24;1622272;85;21623;-46
2021/07/13 08:13:46;;;;;;;15.68;7.95;;;;;;;30.09;43.65;98623.45;1611462;88;21075;-43
2021/07/13 08:16:16;;;;;;;9.70;7.28;;;;;;;29.84;44.71;98625.42;1597276;87;21614;-43
2021/07/13 08:18:45;;;;;;;12.27;7.63;;;;;;;29.64;44.70;98622.24;1583567;89;21087;-46
2021/07/13 08:21:15;;;;;;;14.45;8.38;;;;;;;29.50;45.87;98625.27;1581407;90;21086;-42
2021/07/13 08:23:43;;;;;;;16.48;8.50;;;;;;;29.49;46.62;98618.83;1582009;91;21075;-49
2021/07/13 08:26:10;;;;;;;13.00;7.70;;;;;;;29.45;46.08;98621.42;1606187;88;21144;-45
2021/07/13 08:28:38;;;;;;;13.13;8.73;;;;;;;29.32;46.52;98626.05;1610815;86;21095;-39
2021/07/13 08:31:05;;;;;;;14.15;8.63;;;;;;;29.13;47.23;98631.19;1625348;87;21086;-47
2021/07/13 08:33:34;;;;;;;13.15;8.35;;;;;;;29.03;47.75;98624.86;1609129;87;21108;-45
2021/07/13 08:36:02;;;;;;;12.55;8.43;;;;;;;29.00;48.09;98624.16;1608838;87;21169;-42
2021/07/13 08:38:31;;;;;;;17.23;8.90;;;;;;;29.07;48.57;98631.17;1613141;87;21527;-48
2021/07/13 08:41:00;;;;;;;13.70;8.80;;;;;;;29.11;49.15;98628.03;1612480;88;21574;-41
2021/07/13 08:43:29;;;;;;;15.93;8.33;;;;;;;29.18;48.95;98622.05;1611531;87;21098;-43
2021/07/13 08:45:57;;;;;;;13.83;8.15;;;;;;;29.21;49.12;98613.25;1611683;88;21051;-43
2021/07/13 08:48:25;;;;;;;12.85;8.23;;;;;;;29.23;48.71;98614.48;1612138;88;21130;-53
2021/07/13 08:50:58;;;;;;;11.95;8.55;;;;;;;29.22;49.22;98621.61;1609041;87;21600;-46
2021/07/13 08:53:28;;;;;;;14.58;8.00;;;;;;;29.23;48.69;98621.83;1594610;87;21133;-49
2021/07/13 08:55:57;;;;;;;10.72;7.97;;;;;;;29.15;48.38;98622.73;1610824;87;21618;-42
2021/07/13 08:58:25;;;;;;;12.40;8.00;;;;;;;29.09;48.06;98625.66;1619552;86;21109;-46
2021/07/13 09:00:53;;;;;;;15.78;8.45;;;;;;;29.06;48.18;98622.25;1611041;88;21059;-44
2021/07/13 09:03:22;;;;;;;13.30;8.28;;;;;;;29.03;48.27;98625.64;1612400;87;21052;-47
2021/07/13 09:05:54;;;;;;;12.37;7.58;;;;;;;28.94;48.67;98631.71;1612264;88;21044;-44
2021/07/13 09:08:32;;;;;;;13.75;8.10;;;;;;;28.92;49.23;98629.09;1613813;87;21119;-45
2021/07/13 09:11:19;;;;;;;12.10;7.80;;;;;;;28.81;49.01;98622.71;1608682;88;21047;-44
2021/07/13 09:13:59;;;;;;;11.63;7.40;;;;;;;28.77;48.25;98623.14;1609093;88;21578;-46
2021/07/13 09:16:33;;;;;;;12.60;7.30;;;;;;;28.63;49.05;98622.65;1622838;86;21106;-46
2021/07/13 09:19:02;;;;;;;9.13;6.28;;;;;;;28.76;47.63;98622.13;1651638;86;21534;-46
2021/07/13 09:21:33;;;;;;;11.75;7.05;;;;;;;28.92;47.04;98620.38;1634187;86;21626;-44
2021/07/13 09:24:17;;;;;;;11.18;7.00;;;;;;;29.12;47.07;98618.75;1640445;86;21020;-44
2021/07/13 09:26:54;;;;;;;13.28;6.75;;;;;;;29.28;46.42;98621.05;1631901;87;21040;-45
2021/07/13 09:29:40;;;;;;;10.23;5.62;;;;;;;29.41;46.54;98620.50;1637552;86;21038;-45
2021/07/13 09:32:28;;;;;;;6.70;5.72;;;;;;;29.53;44.05;98622.46;1636488;86;21051;-45
2021/07/13 09:35:05;;;;;;;8.48;5.50;;;;;;;29.58;43.42;98620.31;1605938;88;21073;-45
2021/07/13 09:37:35;;;;;;;10.55;6.35;;;;;;;29.71;43.44;98614.34;1601426;88;21080;-45
2021/07/13 09:40:17;;;;;;;9.48;6.20;;;;;;;29.81;44.13;98613.86;1600345;89;21537;-45
2021/07/13 09:42:52;;;;;;;9.10;5.60;;;;;;;29.86;44.19;98614.20;1602770;88;21110;-45
2021/07/13 09:45:24;;;;;;;10.75;4.95;;;;;;;29.89;43.34;98616.25;1609566;88;21131;-45
2021/07/13 09:47:57;;;;;;;7.37;4.83;;;;;;;29.95;41.88;98619.53;1609435;88;21048;-46
2021/07/13 09:50:45;;;;;;;8.20;5.30;;;;;;;29.96;40.80;98617.83;1612097;88;21115;-45
2021/07/13 09:53:17;;;;;;;8.25;5.05;;;;;;;29.95;41.55;98623.61;1605907;89;21068;-45
2021/07/13 09:55:46;;;;;;;9.20;5.15;;;;;;;29.95;40.76;98629.05;1609436;88;21067;-46
2021/07/13 09:58:24;;;;;;;11.03;5.80;;;;;;;29.98;40.88;98632.42;1609309;89;21106;-49
2021/07/13 10:00:59;;;;;;;8.85;5.33;;;;;;;30.01;41.30;98633.11;1636183;86;21622;-46
2021/07/13 10:03:30;;;;;;;9.30;5.35;;;;;;;29.98;42.27;98629.70;1584541;90;22233;-46
2021/07/13 10:05:57;;;;;;;8.70;5.95;;;;;;;29.98;42.21;98631.85;1588472;89;21868;-47
2021/07/13 10:08:25;;;;;;;10.58;6.40;;;;;;;30.00;42.78;98633.68;1624570;87;21094;-45
2021/07/13 10:10:56;;;;;;;10.23;6.25;;;;;;;30.05;42.93;98629.37;1609992;88;21474;-46
2021/07/13 10:13:24;;;;;;;9.98;6.40;;;;;;;30.05;42.62;98629.91;1607862;88;21035;-48
2021/07/13 10:15:52;;;;;;;10.38;6.22;;;;;;;29.97;42.49;98631.63;1625225;87;21031;-50
2021/07/13 10:18:22;;;;;;;12.13;6.60;;;;;;;29.91;43.02;98636.28;1610273;88;21590;-46
2021/07/13 10:20:51;;;;;;;16.50;7.47;;;;;;;29.89;43.45;98631.20;1627750;87;21111;-46
2021/07/13 10:23:19;;;;;;;11.65;6.35;;;;;;;29.94;43.94;98633.69;1626606;87;21146;-43
2021/07/13 10:25:48;;;;;;;9.80;6.12;;;;;;;29.98;44.07;98635.14;1608730;87;21562;-42
2021/07/13 10:28:21;;;;;;;9.13;6.78;;;;;;;29.96;43.58;98630.05;1609230;88;21571;-46
2021/07/13 10:30:56;;;;;;;11.93;6.65;;;;;;;29.98;44.07;98628.34;1610698;87;21040;-43
2021/07/13 10:33:32;;;;;;;12.90;7.60;;;;;;;30.08;44.52;98634.11;1605589;88;21054;-51
2021/07/13 10:36:19;;;;;;;;;;;;;;;30.06;44.47;98630.95;1656492;86;21075;-43
2021/07/13 10:38:47;;;;;;;14.75;8.30;;;;;;;30.04;44.72;98640.00;1642167;86;20432;-53
2021/07/13 10:41:19;;;;;;;12.88;6.90;;;;;;;30.04;44.46;98635.13;1626738;87;21091;-49
2021/07/13 10:43:49;;;;;;;12.30;7.20;;;;;;;30.05;44.77;98631.27;1600469;87;21640;-48
2021/07/13 10:46:17;;;;;;;13.32;7.28;;;;;;;30.06;44.57;98626.88;1613282;87;21059;-45
2021/07/13 10:48:45;;;;;;;11.22;7.22;;;;;;;30.10;44.53;98626.97;1619848;87;21071;-55
2021/07/13 10:51:12;;;;;;;10.45;6.70;;;;;;;30.09;43.93;98628.89;1608998;88;21083;-51
2021/07/13 10:53:45;;;;;;;10.50;6.75;;;;;;;30.06;44.06;98622.02;1618175;87;21507;-47
2021/07/13 10:56:18;;;;;;;11.33;6.55;;;;;;;30.08;43.77;98628.67;1623037;87;21016;-44
2021/07/13 10:58:52;;;;;;;13.00;7.20;;;;;;;30.15;44.47;98619.97;1611371;87;21067;-47
2021/07/13 11:01:29;;;;;;;13.95;6.92;;;;;;;30.22;43.64;98616.09;1613815;87;21664;-46
2021/07/13 11:03:58;;;;;;;14.07;6.75;;;;;;;30.15;43.20;98616.68;1559280;91;21139;-42
2021/07/13 11:06:53;;;;;;;13.57;6.47;;;;;;;30.05;43.51;98620.41;1608292;89;21066;-47
2021/07/13 11:09:28;;;;;;;18.73;8.68;;;;;;;30.02;43.22;98617.81;1621188;87;21250;-45
2021/07/13 11:12:08;;;;;;;21.40;7.37;;;;;;;30.02;43.03;98616.45;1623714;87;21055;-48
2021/07/13 11:14:51;;;;;;;14.50;6.42;;;;;;;30.11;43.07;98617.73;1609074;87;21643;-44
2021/07/13 11:17:21;;;;;;;13.88;6.78;;;;;;;30.23;43.07;98612.84;1608642;87;21119;-53
2021/07/13 11:19:50;;;;;;;10.43;6.72;;;;;;;30.33;43.11;98618.56;1607866;89;21123;-43
2021/07/13 11:22:19;;;;;;;13.55;6.80;;;;;;;30.37;42.36;98609.95;1624181;87;21079;-44
2021/07/13 11:24:46;;;;;;;10.23;6.47;;;;;;;30.36;42.25;98611.09;1611118;88;21062;-45
2021/07/13 11:27:17;;;;;;;12.30;6.80;;;;;;;30.38;42.09;98611.53;1609091;88;21111;-52
2021/07/13 11:29:51;;;;;;;12.73;6.62;;;;;;;30.39;41.99;98607.70;1609070;87;21575;-45
2021/07/13 11:32:18;;;;;;;11.75;6.08;;;;;;;30.37;42.38;98609.95;1610181;88;21043;-43
2021/07/13 11:34:57;;;;;;;11.35;6.50;;;;;;;30.43;42.18;98610.50;1629027;87;21536;-42
2021/07/13 11:37:34;;;;;;;11.73;6.67;;;;;;;30.51;42.16;98602.78;1609941;88;21075;-43
2021/07/13 11:40:07;;;;;;;11.93;6.70;;;;;;;30.60;42.29;98605.34;1609470;88;21083;-45
2021/07/13 11:42:30;;;;;;;11.80;6.70;;;;;;;30.63;42.07;98595.93;1609257;88;21083;-47
2021/07/13 11:45:01;;;;;;;12.60;6.53;;;;;;;30.55;41.95;98600.14;1614267;87;21086;-42
2021/07/13 11:47:29;;;;;;;9.50;6.22;;;;;;;30.46;42.16;98608.47;1639352;86;21095;-47
2021/07/13 11:49:59;;;;;;;10.50;6.05;;;;;;;30.47;42.92;98607.89;1639925;86;21582;-50
2021/07/13 11:52:27;;;;;;;8.88;5.70;;;;;;;30.53;42.87;98601.86;1626472;86;21305;-46
2021/07/13 11:54:57;;;;;;;9.88;7.00;;;;;;;30.62;43.31;98605.78;1620075;86;21059;-51
2021/07/13 11:57:24;;;;;;;12.80;6.92;;;;;;;30.70;43.17;98604.88;1608788;87;21583;-44
2021/07/13 11:59:52;;;;;;;10.13;6.90;;;;;;;30.71;42.73;98594.79;1608039;88;21079;-50
2021/07/13 12:02:20;;;;;;;10.60;6.55;;;;;;;30.71;42.85;98594.79;1621263;86;21611;-50
2021/07/13 12:04:50;;;;;;;14.95;6.45;;;;;;;30.79;42.58;98586.45;1617956;86;21083;-44
2021/07/13 12:07:19;;;;;;;10.48;6.25;;;;;;;30.83;42.69;98584.63;1605943;87;21103;-44
2021/07/13 12:09:59;;;;;;;13.00;7.05;;;;;;;30.87;42.73;98588.25;1631189;86;21083;-50
2021/07/13 12:12:38;;;;;;;10.60;6.92;;;;;;;30.84;42.61;98588.14;1590667;86;21630;-58
2021/07/13 12:15:07;;;;;;;12.00;6.35;;;;;;;30.80;42.85;98587.27;1606109;87;21115;-53
2021/07/13 12:17:35;;;;;;;10.98;6.12;;;;;;;30.83;43.05;98593.37;1610341;87;21004;-55
2021/07/13 12:20:04;;;;;;;9.60;6.08;;;;;;;30.84;42.10;98582.70;1616048;87;21078;-41
2021/07/13 12:22:31;;;;;;;8.50;6.12;;;;;;;30.87;42.16;98585.52;1606888;86;21572;-44
2021/07/13 12:25:00;;;;;;;10.25;6.22;;;;;;;30.92;41.59;98582.55;1612238;88;21114;-43
2021/07/13 12:27:33;;;;;;;8.15;6.10;;;;;;;30.97;41.26;98581.51;1612361;87;21078;-48
2021/07/13 12:30:15;;;;;;;8.18;5.83;;;;;;;31.04;41.63;98584.41;1598013;88;21087;-43
2021/07/13 12:32:45;;;;;;;11.22;6.22;;;;;;;31.08;41.80;98577.14;1612660;88;21031;-40
2021/07/13 12:35:15;;;;;;;10.48;6.40;;;;;;;31.07;40.65;98580.19;1604174;88;21095;-48
2021/07/13 12:37:43;;;;;;;11.10;5.92;;;;;;;31.00;40.87;98574.56;1612896;87;21039;-53
2021/07/13 12:40:12;;;;;;;;;;;;;;;30.86;40.90;98568.19;1616478;87;21494;-48
2021/07/13 12:42:45;;;;;;;12.90;6.05;;;;;;;30.79;41.17;98563.33;1608738;87;20919;-42
2021/07/13 12:45:20;;;;;;;12.73;7.12;;;;;;;30.79;41.63;98560.61;1622184;86;21052;-45
2021/07/13 12:47:51;;;;;;;14.03;6.60;;;;;;;30.80;41.66;98567.66;1611737;87;21203;-40
2021/07/13 12:50:31;;;;;;;10.10;6.58;;;;;;;30.79;41.78;98574.21;1619378;86;21087;-44
2021/07/13 12:53:04;;;;;;;;;;;;;;;30.81;41.68;98562.44;1617386;86;21082;-45
2021/07/13 12:55:47;;;;;;;10.58;6.40;;;;;;;30.93;41.72;98566.44;1607688;86;20116;-49
2021/07/13 12:58:26;;;;;;;10.50;7.10;;;;;;;31.04;41.70;98567.29;1618126;86;21100;-45
2021/07/13 13:01:00;;;;;;;9.78;6.55;;;;;;;31.10;41.37;98564.53;1622805;86;21106;-40
2021/07/13 13:03:34;;;;;;;11.05;6.42;;;;;;;31.08;41.28;98561.34;1615519;86;21127;-43
2021/07/13 13:06:11;;;;;;;13.15;6.50;;;;;;;31.09;41.48;98567.82;1614455;86;21538;-44
2021/07/13 13:08:43;;;;;;;11.20;6.75;;;;;;;31.06;41.31;98562.27;1620244;87;21606;-41
2021/07/13 13:11:18;;;;;;;8.28;5.92;;;;;;;31.04;41.31;98561.27;1607990;88;21079;-41
2021/07/13 13:13:47;;;;;;;8.95;6.67;;;;;;;31.03;41.61;98558.34;1611226;88;21516;-42
2021/07/13 13:16:24;;;;;;;8.15;6.20;;;;;;;31.02;41.71;98556.73;1625632;86;21582;-44
2021/07/13 13:18:56;;;;;;;12.50;6.53;;;;;;;31.00;41.65;98553.58;1606069;87;21487;-48
2021/07/13 13:21:26;;;;;;;11.57;6.20;;;;;;;31.00;41.77;98556.30;1609251;86;21063;-47
2021/07/13 13:24:04;;;;;;;11.73;7.15;;;;;;;31.06;41.17;98553.54;1626518;86;21102;-45
2021/07/13 13:26:33;;;;;;;12.37;6.83;;;;;;;31.07;41.35;98553.75;1599423;88;21063;-43
2021/07/13 13:29:01;;;;;;;10.38;6.87;;;;;;;31.05;41.96;98553.33;1605363;86;21039;-44
2021/07/13 13:31:29;;;;;;;11.25;6.58;;;;;;;31.03;42.06;98542.58;1606590;86;21098;-41
2021/07/13 13:34:01;;;;;;;9.43;6.30;;;;;;;31.06;41.99;98543.22;1608534;87;21087;-40
2021/07/13 13:36:29;;;;;;;9.48;6.37;;;;;;;31.01;42.49;98544.27;1614048;87;21032;-49
2021/07/13 13:39:05;;;;;;;12.20;6.87;;;;;;;31.03;42.46;98539.28;1608946;88;21063;-42
2021/07/13 13:41:32;;;;;;;11.12;7.08;;;;;;;31.06;42.49;98541.86;1599400;88;21095;-46
2021/07/13 13:44:00;;;;;;;9.38;6.60;;;;;;;31.06;42.13;98538.57;1617136;87;21055;-51
2021/07/13 13:46:28;;;;;;;9.95;6.62;;;;;;;30.99;41.80;98536.25;1618838;86;21032;-44
2021/07/13 13:48:56;;;;;;;10.88;7.28;;;;;;;30.87;42.49;98537.91;1613481;87;21135;-43
2021/07/13 13:51:24;;;;;;;9.73;6.80;;;;;;;30.83;43.63;98538.37;1612182;88;21059;-45
2021/07/13 13:53:52;;;;;;;12.33;7.05;;;;;;;30.78;43.53;98531.83;1613328;88;21575;-44
2021/07/13 13:56:24;;;;;;;13.47;7.17;;;;;;;30.77;43.02;98534.91;1610000;88;21099;-45
2021/07/13 13:58:51;;;;;;;13.62;7.22;;;;;;;30.70;42.78;98540.95;1610167;87;21817;-45
2021/07/13 14:01:20;;;;;;;12.53;6.87;;;;;;;30.70;43.40;98533.36;1605583;88;21605;-44
